createdAt,value
2023-04-15T00:01:07.304Z,6.29
2023-04-15T00:03:35.164Z,6.26
2023-04-15T00:06:02.585Z,6.21
2023-04-15T00:08:30.496Z,6.20
2023-04-15T00:10:59.599Z,6.14
2023-04-15T00:13:26.619Z,6.10
2023-04-15T00:15:53.500Z,6.12
2023-04-15T00:18:20.447Z,6.15
2023-04-15T00:20:47.324Z,6.20
2023-04-15T00:23:14.248Z,6.29
2023-04-15T00:25:41.221Z,6.35
2023-04-15T00:28:08.953Z,6.42
2023-04-15T00:30:35.920Z,6.52
2023-04-15T00:33:03.838Z,6.59
2023-04-15T00:35:32.897Z,6.65
2023-04-15T00:38:00.295Z,6.67
2023-04-15T00:40:28.215Z,6.72
2023-04-15T00:42:55.298Z,6.75
2023-04-15T00:45:22.342Z,6.70
2023-04-15T00:47:49.329Z,6.59
2023-04-15T00:50:16.266Z,6.50
2023-04-15T00:52:43.434Z,6.44
2023-04-15T00:55:11.469Z,6.35
2023-04-15T00:57:39.284Z,6.27
2023-04-15T01:00:08.558Z,6.25
2023-04-15T01:02:37.131Z,6.29
2023-04-15T01:05:04.575Z,6.30
2023-04-15T01:07:32.373Z,6.30
2023-04-15T01:09:59.198Z,6.29
2023-04-15T01:12:27.233Z,6.28
2023-04-15T01:14:55.374Z,6.29
2023-04-15T01:17:22.352Z,6.33
2023-04-15T01:19:49.250Z,6.37
2023-04-15T01:22:16.474Z,6.46
2023-04-15T01:24:47.960Z,6.46
2023-04-15T01:27:15.237Z,6.57
2023-04-15T01:29:43.348Z,6.56
2023-04-15T01:32:10.217Z,6.49
2023-04-15T01:34:37.212Z,6.46
2023-04-15T01:37:04.136Z,6.45
2023-04-15T01:39:31.290Z,6.48
2023-04-15T01:41:58.303Z,6.52
2023-04-15T01:44:25.373Z,6.51
2023-04-15T01:46:52.864Z,6.57
2023-04-15T01:49:19.782Z,6.61
2023-04-15T01:51:46.692Z,6.60
2023-04-15T01:54:13.675Z,6.47
2023-04-15T01:56:40.653Z,6.31
2023-04-15T01:59:07.873Z,6.26
2023-04-15T02:01:35.005Z,6.32
2023-04-15T02:04:02.082Z,6.37
2023-04-15T02:06:29.115Z,6.38
2023-04-15T02:08:56.081Z,6.36
2023-04-15T02:11:23.549Z,6.38
2023-04-15T02:13:50.593Z,6.42
2023-04-15T02:16:20.745Z,6.48
2023-04-15T02:18:48.123Z,6.50
2023-04-15T02:21:15.237Z,6.55
2023-04-15T02:23:42.230Z,6.59
2023-04-15T02:26:09.361Z,6.65
2023-04-15T02:28:36.869Z,6.69
2023-04-15T02:31:08.551Z,6.75
2023-04-15T02:33:35.802Z,6.79
2023-04-15T02:36:02.827Z,6.81
2023-04-15T02:38:29.736Z,6.86
2023-04-15T02:40:57.347Z,6.86
2023-04-15T02:43:24.431Z,6.87
2023-04-15T02:45:51.479Z,6.84
2023-04-15T02:48:20.660Z,6.83
2023-04-15T02:50:48.370Z,6.79
2023-04-15T02:53:15.208Z,6.74
2023-04-15T02:55:43.178Z,6.66
2023-04-15T02:58:10.128Z,6.59
2023-04-15T03:00:37.071Z,6.58
2023-04-15T03:03:05.046Z,6.58
2023-04-15T03:05:32.303Z,6.57
2023-04-15T03:08:00.914Z,6.60
2023-04-15T03:10:28.282Z,6.60
2023-04-15T03:12:55.169Z,6.63
2023-04-15T03:15:22.639Z,6.60
2023-04-15T03:17:49.927Z,6.54
2023-04-15T03:20:17.222Z,6.48
2023-04-15T03:22:44.100Z,6.40
2023-04-15T03:25:11.585Z,6.33
2023-04-15T03:27:38.839Z,6.19
2023-04-15T03:30:07.896Z,6.07
2023-04-15T03:32:35.026Z,6.07
2023-04-15T03:35:05.331Z,6.01
2023-04-15T03:37:32.317Z,5.95
2023-04-15T03:39:59.269Z,5.93
2023-04-15T03:42:26.313Z,5.85
2023-04-15T03:44:53.251Z,5.72
2023-04-15T03:47:20.339Z,5.56
2023-04-15T03:49:47.196Z,5.45
2023-04-15T03:52:14.132Z,5.32
2023-04-15T03:54:41.135Z,5.27
2023-04-15T03:57:07.996Z,5.15
2023-04-15T03:59:34.869Z,5.07
2023-04-15T04:02:01.789Z,5.02
2023-04-15T04:04:28.960Z,5.05
2023-04-15T04:06:55.968Z,5.07
2023-04-15T04:09:22.867Z,5.10
2023-04-15T04:11:49.703Z,5.14
2023-04-15T04:14:16.562Z,5.14
2023-04-15T04:16:43.735Z,5.15
2023-04-15T04:19:11.043Z,5.17
2023-04-15T04:21:39.832Z,5.21
2023-04-15T04:24:06.975Z,5.28
2023-04-15T04:26:33.990Z,5.32
2023-04-15T04:29:01.230Z,5.31
2023-04-15T04:31:28.320Z,5.29
2023-04-15T04:33:55.874Z,5.21
2023-04-15T04:36:22.952Z,5.16
2023-04-15T04:38:49.907Z,5.20
2023-04-15T04:41:16.795Z,5.27
2023-04-15T04:43:43.685Z,5.29
2023-04-15T04:46:10.667Z,5.30
2023-04-15T04:48:37.581Z,5.27
2023-04-15T04:51:04.418Z,5.26
2023-04-15T04:53:31.838Z,5.20
2023-04-15T04:55:59.112Z,5.20
2023-04-15T04:58:26.018Z,5.17
2023-04-15T05:00:53.353Z,5.17
2023-04-15T05:03:20.409Z,5.18
2023-04-15T05:05:49.638Z,5.17
2023-04-15T05:08:16.990Z,5.17
2023-04-15T05:10:43.863Z,5.21
2023-04-15T05:13:11.321Z,5.24
2023-04-15T05:15:40.221Z,5.32
2023-04-15T05:18:07.401Z,5.40
2023-04-15T05:20:34.287Z,5.47
2023-04-15T05:23:01.330Z,5.56
2023-04-15T05:25:28.195Z,5.63
2023-04-15T05:27:55.079Z,5.72
2023-04-15T05:30:22.680Z,5.82
2023-04-15T05:32:50.467Z,5.90
2023-04-15T05:35:17.863Z,5.95
2023-04-15T05:37:46.384Z,5.98
2023-04-15T05:40:13.441Z,6.01
2023-04-15T05:42:40.426Z,6.05
2023-04-15T05:45:09.663Z,6.05
2023-04-15T05:47:37.867Z,6.04
2023-04-15T05:50:05.266Z,5.98
2023-04-15T05:52:32.497Z,5.98
2023-04-15T05:54:59.414Z,5.96
2023-04-15T05:57:26.509Z,5.96
2023-04-15T05:59:53.770Z,5.98
2023-04-15T06:02:21.375Z,5.94
2023-04-15T06:04:48.775Z,6.07
2023-04-15T06:07:15.907Z,6.18
2023-04-15T06:09:42.761Z,6.35
2023-04-15T06:12:12.460Z,6.43
2023-04-15T06:14:40.907Z,6.58
2023-04-15T06:17:07.797Z,6.61
2023-04-15T06:19:35.206Z,6.61
2023-04-15T06:22:03.188Z,6.66
2023-04-15T06:24:30.140Z,6.72
2023-04-15T06:26:57.757Z,6.81
2023-04-15T06:29:24.742Z,6.89
2023-04-15T06:31:52.072Z,6.80
2023-04-15T06:34:18.960Z,6.60
2023-04-15T06:36:46.210Z,6.59
2023-04-15T06:39:13.045Z,6.60
2023-04-15T06:41:39.954Z,6.56
2023-04-15T06:44:07.524Z,6.55
2023-04-15T06:46:34.495Z,6.61
2023-04-15T06:49:01.808Z,6.60
2023-04-15T06:51:29.042Z,6.56
2023-04-15T06:53:57.124Z,6.52
2023-04-15T06:56:24.164Z,6.48
2023-04-15T06:58:51.372Z,6.56
2023-04-15T07:01:18.725Z,6.64
2023-04-15T07:03:45.685Z,6.67
2023-04-15T07:06:13.714Z,6.73
2023-04-15T07:08:40.650Z,6.73
2023-04-15T07:11:07.760Z,6.70
2023-04-15T07:13:34.720Z,6.71
2023-04-15T07:16:01.581Z,6.87
2023-04-15T07:18:28.448Z,7.02
2023-04-15T07:20:55.337Z,7.19
2023-04-15T07:23:22.964Z,7.36
2023-04-15T07:25:49.987Z,7.55
2023-04-15T07:28:16.985Z,7.52
2023-04-15T07:30:43.913Z,7.56
2023-04-15T07:33:11.193Z,7.68
2023-04-15T07:35:38.164Z,7.90
2023-04-15T07:38:05.079Z,8.09
2023-04-15T07:40:32.613Z,8.19
2023-04-15T07:42:59.496Z,8.21
2023-04-15T07:45:26.658Z,8.19
2023-04-15T07:47:53.720Z,7.95
2023-04-15T07:50:20.809Z,7.75
2023-04-15T07:52:47.724Z,7.63
2023-04-15T07:55:15.694Z,7.54
2023-04-15T07:57:42.735Z,7.47
2023-04-15T08:00:10.098Z,7.38
2023-04-15T08:02:39.697Z,7.32
2023-04-15T08:05:07.937Z,7.25
2023-04-15T08:07:34.923Z,7.20
2023-04-15T08:10:01.781Z,6.89
2023-04-15T08:12:28.948Z,6.57
2023-04-15T08:14:57.110Z,6.54
2023-04-15T08:17:24.692Z,6.57
2023-04-15T08:19:51.766Z,6.62
2023-04-15T08:22:19.665Z,6.68
2023-04-15T08:24:47.933Z,6.74
2023-04-15T08:27:14.889Z,6.80
2023-04-15T08:29:41.793Z,6.86
2023-04-15T08:32:09.025Z,6.94
2023-04-15T08:34:35.920Z,7.07
2023-04-15T08:37:03.219Z,7.13
2023-04-15T08:39:30.111Z,7.18
2023-04-15T08:42:07.392Z,7.25
2023-04-15T08:44:34.926Z,7.39
2023-04-15T08:47:03.019Z,7.52
2023-04-15T08:49:30.879Z,7.50
2023-04-15T08:52:00.876Z,7.49
2023-04-15T08:54:28.574Z,7.54
2023-04-15T08:56:55.449Z,7.56
2023-04-15T08:59:22.307Z,7.49
2023-04-15T09:01:51.379Z,7.43
2023-04-15T09:04:18.457Z,7.36
2023-04-15T09:06:45.388Z,7.43
2023-04-15T09:09:13.693Z,7.61
2023-04-15T09:11:40.672Z,7.99
2023-04-15T09:14:07.975Z,8.29
2023-04-15T09:16:57.115Z,8.45
2023-04-15T09:19:24.722Z,8.62
2023-04-15T09:21:54.623Z,8.80
2023-04-15T09:24:23.627Z,8.89
2023-04-15T09:26:53.731Z,9.03
2023-04-15T09:29:20.644Z,9.13
2023-04-15T09:31:47.540Z,9.31
2023-04-15T09:34:14.633Z,9.44
2023-04-15T09:36:49.723Z,9.56
2023-04-15T09:39:17.869Z,9.83
2023-04-15T09:41:45.294Z,10.27
2023-04-15T09:44:25.455Z,10.68
2023-04-15T09:46:52.303Z,10.88
2023-04-15T09:49:19.750Z,10.95
2023-04-15T09:51:57.977Z,10.86
2023-04-15T09:54:38.465Z,10.85
2023-04-15T09:57:10.329Z,10.72
2023-04-15T09:59:37.593Z,10.68
2023-04-15T10:02:06.927Z,10.72
2023-04-15T10:04:37.636Z,10.60
2023-04-15T10:07:06.287Z,10.59
2023-04-15T10:09:34.537Z,10.44
2023-04-15T10:12:05.491Z,10.55
2023-04-15T10:14:34.926Z,10.81
2023-04-15T10:17:03.487Z,10.87
2023-04-15T10:19:32.411Z,10.99
2023-04-15T10:22:00.403Z,11.18
2023-04-15T10:24:28.043Z,11.32
2023-04-15T10:26:55.566Z,11.11
2023-04-15T10:29:22.730Z,11.16
2023-04-15T10:31:49.737Z,11.39
2023-04-15T10:34:16.817Z,11.47
2023-04-15T10:36:43.674Z,11.42
2023-04-15T10:39:35.327Z,11.26
2023-04-15T10:42:16.348Z,10.94
2023-04-15T10:44:50.226Z,11.10
2023-04-15T10:47:22.361Z,11.29
2023-04-15T10:49:51.259Z,11.19
2023-04-15T10:52:24.188Z,11.15
2023-04-15T10:54:51.496Z,11.05
2023-04-15T10:57:24.665Z,11.09
2023-04-15T11:00:05.031Z,10.96
2023-04-15T11:02:46.651Z,11.02
2023-04-15T11:05:17.630Z,11.19
2023-04-15T11:07:44.668Z,11.02
2023-04-15T11:10:14.546Z,11.00
2023-04-15T11:12:42.174Z,10.95
2023-04-15T11:15:29.773Z,10.87
2023-04-15T11:17:58.128Z,10.67
2023-04-15T11:20:25.422Z,10.49
2023-04-15T11:23:13.832Z,10.37
2023-04-15T11:25:43.517Z,10.33
2023-04-15T11:28:11.572Z,10.26
2023-04-15T11:30:39.389Z,10.21
2023-04-15T11:33:10.637Z,10.16
2023-04-15T11:35:37.457Z,9.91
2023-04-15T11:38:05.492Z,9.83
2023-04-15T11:40:35.688Z,9.86
2023-04-15T11:43:10.099Z,9.95
2023-04-15T11:45:37.964Z,9.91
2023-04-15T11:48:12.183Z,9.92
2023-04-15T11:50:41.290Z,9.98
2023-04-15T11:53:09.829Z,10.17
2023-04-15T11:55:50.817Z,10.15
2023-04-15T11:58:22.714Z,10.23
2023-04-15T12:01:00.374Z,10.26
2023-04-15T12:03:44.220Z,10.36
2023-04-15T12:06:14.442Z,10.58
2023-04-15T12:09:01.143Z,10.79
2023-04-15T12:11:28.990Z,11.19
2023-04-15T12:14:07.690Z,11.60
2023-04-15T12:16:48.202Z,11.72
2023-04-15T12:19:19.341Z,11.93
2023-04-15T12:21:48.301Z,12.08
2023-04-15T12:24:15.154Z,12.14
2023-04-15T12:26:46.778Z,12.08
2023-04-15T12:29:15.259Z,11.88
2023-04-15T12:31:54.175Z,11.61
2023-04-15T12:34:32.028Z,11.42
2023-04-15T12:37:00.130Z,11.27
2023-04-15T12:39:30.475Z,11.46
2023-04-15T12:41:59.113Z,11.52
2023-04-15T12:44:26.237Z,11.24
2023-04-15T12:46:53.986Z,11.09
2023-04-15T12:49:21.689Z,11.23
2023-04-15T12:51:53.311Z,11.06
2023-04-15T12:54:20.254Z,10.84
2023-04-15T12:56:47.726Z,10.50
2023-04-15T12:59:16.265Z,10.71
2023-04-15T13:01:43.286Z,10.81
2023-04-15T13:04:10.539Z,10.60
2023-04-15T13:06:38.819Z,10.45
2023-04-15T13:09:06.335Z,10.27
2023-04-15T13:11:34.171Z,10.17
2023-04-15T13:14:02.328Z,10.02
2023-04-15T13:16:30.093Z,10.00
2023-04-15T13:18:56.978Z,10.00
2023-04-15T13:21:23.804Z,9.87
2023-04-15T13:23:51.634Z,10.06
2023-04-15T13:26:18.862Z,10.23
2023-04-15T13:28:46.519Z,10.18
2023-04-15T13:31:13.499Z,10.31
2023-04-15T13:33:40.441Z,10.41
2023-04-15T13:36:07.414Z,10.42
2023-04-15T13:38:34.277Z,10.46
2023-04-15T13:41:01.130Z,10.38
2023-04-15T13:43:27.982Z,10.15
2023-04-15T13:45:54.967Z,9.78
2023-04-15T13:48:21.906Z,9.65
2023-04-15T13:50:48.854Z,9.43
2023-04-15T13:53:16.088Z,9.21
2023-04-15T13:55:43.467Z,9.14
2023-04-15T13:58:10.373Z,9.15
2023-04-15T14:00:37.469Z,9.18
2023-04-15T14:03:05.032Z,9.23
2023-04-15T14:05:32.946Z,9.37
2023-04-15T14:08:00.807Z,9.22
2023-04-15T14:10:27.773Z,9.20
2023-04-15T14:12:54.691Z,9.35
2023-04-15T14:15:21.610Z,9.30
2023-04-15T14:17:48.550Z,9.31
2023-04-15T14:20:17.144Z,9.09
2023-04-15T14:22:44.451Z,9.14
2023-04-15T14:25:17.272Z,9.15
2023-04-15T14:27:47.118Z,8.97
2023-04-15T14:30:14.044Z,8.91
2023-04-15T14:32:41.438Z,8.88
2023-04-15T14:35:08.625Z,8.97
2023-04-15T14:37:35.536Z,9.09
2023-04-15T14:40:02.407Z,9.27
2023-04-15T14:42:29.347Z,9.38
2023-04-15T14:44:56.177Z,9.52
2023-04-15T14:47:23.102Z,9.68
2023-04-15T14:49:50.145Z,9.89
2023-04-15T14:52:17.336Z,9.86
2023-04-15T14:54:44.325Z,9.83
2023-04-15T14:57:11.428Z,9.78
2023-04-15T14:59:38.279Z,9.61
2023-04-15T15:02:05.319Z,9.62
2023-04-15T15:04:33.755Z,9.42
2023-04-15T15:07:01.176Z,9.27
2023-04-15T15:09:28.286Z,9.21
2023-04-15T15:11:55.236Z,9.13
2023-04-15T15:14:22.246Z,9.17
2023-04-15T15:16:49.809Z,9.18
2023-04-15T15:19:17.130Z,9.01
2023-04-15T15:21:44.121Z,8.99
2023-04-15T15:24:11.068Z,8.96
2023-04-15T15:26:37.932Z,8.94
2023-04-15T15:29:05.226Z,8.96
2023-04-15T15:31:32.224Z,8.96
2023-04-15T15:33:59.237Z,8.83
2023-04-15T15:36:27.449Z,8.74
2023-04-15T15:38:54.395Z,8.54
2023-04-15T15:41:21.886Z,8.45
2023-04-15T15:43:48.827Z,8.35
2023-04-15T15:46:15.964Z,8.27
2023-04-15T15:48:42.991Z,8.32
2023-04-15T15:51:09.874Z,8.26
2023-04-15T15:53:37.372Z,8.23
2023-04-15T15:56:05.435Z,8.26
2023-04-15T15:58:32.433Z,8.18
2023-04-15T16:01:01.594Z,8.12
2023-04-15T16:03:29.501Z,7.72
2023-04-15T16:05:56.947Z,7.65
2023-04-15T16:08:23.828Z,7.62
2023-04-15T16:10:51.443Z,7.47
2023-04-15T16:13:18.310Z,7.51
2023-04-15T16:15:45.297Z,7.66
2023-04-15T16:18:12.231Z,7.58
2023-04-15T16:20:39.246Z,7.59
2023-04-15T16:23:13.634Z,7.81
2023-04-15T16:25:41.918Z,7.96
2023-04-15T16:28:22.714Z,8.15
2023-04-15T16:30:53.195Z,8.16
2023-04-15T16:33:20.023Z,8.12
2023-04-15T16:35:46.926Z,8.14
2023-04-15T16:38:14.174Z,8.27
2023-04-15T16:40:41.755Z,8.41
2023-04-15T16:43:11.530Z,8.50
2023-04-15T16:45:38.805Z,8.66
2023-04-15T16:48:05.999Z,8.83
2023-04-15T16:50:32.933Z,8.88
2023-04-15T16:52:59.800Z,8.86
2023-04-15T16:55:27.147Z,8.74
2023-04-15T16:58:02.370Z,8.74
2023-04-15T17:00:32.281Z,8.61
2023-04-15T17:03:02.876Z,8.66
2023-04-15T17:05:33.073Z,8.61
2023-04-15T17:07:59.929Z,8.51
2023-04-15T17:10:26.898Z,8.31
2023-04-15T17:12:53.899Z,8.20
2023-04-15T17:15:20.751Z,8.19
2023-04-15T17:17:47.717Z,8.14
2023-04-15T17:20:14.937Z,8.06
2023-04-15T17:22:42.081Z,8.08
2023-04-15T17:25:09.252Z,8.07
2023-04-15T17:27:36.204Z,8.00
2023-04-15T17:30:03.103Z,7.90
2023-04-15T17:32:34.884Z,7.89
2023-04-15T17:35:03.325Z,7.83
2023-04-15T17:37:30.326Z,7.73
2023-04-15T17:39:57.307Z,7.46
2023-04-15T17:42:24.288Z,7.17
2023-04-15T17:44:51.263Z,7.05
2023-04-15T17:47:18.330Z,6.91
2023-04-15T17:49:45.147Z,6.69
2023-04-15T17:52:12.106Z,6.51
2023-04-15T17:54:39.059Z,6.50
2023-04-15T17:57:06.543Z,6.51
2023-04-15T17:59:34.487Z,6.46
2023-04-15T18:02:01.584Z,6.38
2023-04-15T18:04:28.672Z,6.25
2023-04-15T18:06:55.693Z,6.17
2023-04-15T18:09:22.509Z,6.12
2023-04-15T18:11:49.398Z,6.15
2023-04-15T18:14:30.593Z,6.11
2023-04-15T18:17:00.822Z,6.08
2023-04-15T18:19:27.915Z,6.01
2023-04-15T18:21:54.859Z,5.94
2023-04-15T18:24:22.583Z,5.81
2023-04-15T18:26:49.665Z,5.75
2023-04-15T18:29:16.687Z,5.65
2023-04-15T18:31:43.876Z,5.53
2023-04-15T18:34:11.060Z,5.44
2023-04-15T18:36:38.060Z,5.21
2023-04-15T18:39:05.370Z,4.98
2023-04-15T18:41:32.430Z,4.80
2023-04-15T18:43:59.565Z,4.67
2023-04-15T18:46:26.478Z,4.58
2023-04-15T18:48:53.588Z,4.55
2023-04-15T18:51:20.628Z,4.58
2023-04-15T18:53:47.545Z,4.59
2023-04-15T18:56:14.377Z,4.61
2023-04-15T18:59:09.014Z,4.60
2023-04-15T19:01:28.563Z,4.63
2023-04-15T19:03:55.672Z,4.68
2023-04-15T19:06:22.591Z,4.69
2023-04-15T19:08:49.709Z,4.72
2023-04-15T19:11:16.733Z,4.79
2023-04-15T19:13:43.721Z,4.75
2023-04-15T19:16:10.562Z,4.75
2023-04-15T19:18:37.525Z,4.75
2023-04-15T19:21:04.459Z,4.70
2023-04-15T19:23:32.267Z,4.69
2023-04-15T19:25:59.350Z,4.67
2023-04-15T19:28:28.430Z,4.65
2023-04-15T19:30:55.601Z,4.66
2023-04-15T19:33:22.616Z,4.70
2023-04-15T19:35:50.335Z,4.68
2023-04-15T19:38:17.372Z,4.68
2023-04-15T19:40:44.620Z,4.72
2023-04-15T19:43:11.527Z,4.70
2023-04-15T19:45:38.478Z,4.65
2023-04-15T19:48:06.532Z,4.63
2023-04-15T19:50:33.494Z,4.58
2023-04-15T19:53:00.537Z,4.54
2023-04-15T19:55:27.510Z,4.52
2023-04-15T19:57:54.438Z,4.40
2023-04-15T20:00:21.761Z,4.39
2023-04-15T20:02:48.809Z,4.47
2023-04-15T20:05:16.071Z,4.57
2023-04-15T20:07:43.574Z,4.60
2023-04-15T20:10:13.318Z,4.61
2023-04-15T20:12:49.361Z,4.63
2023-04-15T20:15:18.863Z,4.65
2023-04-15T20:17:45.932Z,4.62
2023-04-15T20:20:12.819Z,4.64
2023-04-15T20:22:39.810Z,4.67
2023-04-15T20:25:07.263Z,4.67
2023-04-15T20:27:34.253Z,4.71
2023-04-15T20:30:01.440Z,4.71
2023-04-15T20:32:28.581Z,4.71
2023-04-15T20:34:55.731Z,4.66
2023-04-15T20:37:22.636Z,4.67
2023-04-15T20:39:49.747Z,4.65
2023-04-15T20:42:19.185Z,4.63
2023-04-15T20:44:45.876Z,4.64
2023-04-15T20:47:12.878Z,4.66
2023-04-15T20:49:40.088Z,4.66
2023-04-15T20:52:07.794Z,4.68
2023-04-15T20:54:34.764Z,4.70
2023-04-15T20:57:01.876Z,4.71
2023-04-15T20:59:28.750Z,4.68
2023-04-15T21:01:57.491Z,4.61
2023-04-15T21:04:24.983Z,4.52
2023-04-15T21:06:54.856Z,4.54
2023-04-15T21:09:21.738Z,4.61
2023-04-15T21:14:19.179Z,4.67
2023-04-15T21:16:46.700Z,4.66
2023-04-15T21:19:13.714Z,4.68
2023-04-15T21:21:40.899Z,4.69
2023-04-15T21:24:07.995Z,4.77
2023-04-15T21:26:36.420Z,4.81
2023-04-15T21:29:03.522Z,4.85
2023-04-15T21:31:31.156Z,4.86
2023-04-15T21:33:58.048Z,4.92
2023-04-15T21:36:25.258Z,4.92
2023-04-15T21:38:52.153Z,4.86
2023-04-15T21:41:19.119Z,4.84
2023-04-15T21:43:46.078Z,4.83
2023-04-15T21:46:22.129Z,4.84
2023-04-15T21:48:53.414Z,4.89
2023-04-15T21:51:20.610Z,4.94
2023-04-15T21:53:47.588Z,5.00
2023-04-15T21:56:14.472Z,5.03
2023-04-15T21:58:41.538Z,5.02
2023-04-15T22:01:08.582Z,4.88
2023-04-15T22:03:36.000Z,4.82
2023-04-15T22:06:05.121Z,4.83
2023-04-15T22:08:41.348Z,4.81
2023-04-15T22:11:26.985Z,4.77
2023-04-15T22:13:57.583Z,4.83
2023-04-15T22:16:27.834Z,4.72
2023-04-15T22:18:55.616Z,4.80
2023-04-15T22:21:22.941Z,4.84
2023-04-15T22:23:49.894Z,4.84
2023-04-15T22:26:16.878Z,4.86
2023-04-15T22:28:43.764Z,4.88
2023-04-15T22:31:10.716Z,4.91
2023-04-15T22:33:39.087Z,4.93
2023-04-15T22:36:06.426Z,4.97
2023-04-15T22:38:33.361Z,4.99
2023-04-15T22:41:00.374Z,5.01
2023-04-15T22:43:27.947Z,5.04
2023-04-15T22:45:55.243Z,4.98
2023-04-15T22:48:22.764Z,4.97
2023-04-15T22:50:50.024Z,5.09
2023-04-15T22:53:20.281Z,5.15
2023-04-15T22:55:48.390Z,5.25
2023-04-15T22:58:15.785Z,5.30
2023-04-15T23:00:42.806Z,5.38
2023-04-15T23:03:09.962Z,5.35
2023-04-15T23:05:37.552Z,5.30
2023-04-15T23:08:04.403Z,5.25
2023-04-15T23:10:31.362Z,5.21
2023-04-15T23:12:58.419Z,5.20
2023-04-15T23:15:25.452Z,5.20
2023-04-15T23:17:52.320Z,5.18
2023-04-15T23:20:19.228Z,5.17
2023-04-15T23:22:46.431Z,5.30
2023-04-15T23:25:13.653Z,5.35
2023-04-15T23:27:40.561Z,5.39
2023-04-15T23:30:08.218Z,5.39
2023-04-15T23:32:35.193Z,5.34
2023-04-15T23:35:02.322Z,5.37
2023-04-15T23:37:30.426Z,5.34
2023-04-15T23:39:57.550Z,5.34
2023-04-15T23:42:25.065Z,5.25
2023-04-15T23:44:51.889Z,5.18
2023-04-15T23:47:18.800Z,5.12
2023-04-15T23:49:45.853Z,5.08
2023-04-15T23:52:12.968Z,5.05
2023-04-15T23:54:40.145Z,5.08
2023-04-15T23:57:07.026Z,4.99
2023-04-15T23:59:34.121Z,4.92
